sensor_id;sensor_type;location;lat;lon;timestamp;pressure;altitude;pressure_sealevel;temperature;humidity
77702;BME280;66868;42.708;23.404;2024-01-25T00:01:12;95742.41;;;3.39;77.39
77702;BME280;66868;42.708;23.404;2024-01-25T00:03:38;95739.88;;;3.42;77.46
77702;BME280;66868;42.708;23.404;2024-01-25T00:06:05;95716.66;;;3.34;77.75
77702;BME280;66868;42.708;23.404;2024-01-25T00:08:31;95695.88;;;3.32;77.60
77702;BME280;66868;42.708;23.404;2024-01-25T00:10:56;95673.00;;;3.47;76.64
77702;BME280;66868;42.708;23.404;2024-01-25T00:13:22;95659.72;;;3.45;77.24
77702;BME280;66868;42.708;23.404;2024-01-25T00:15:48;95667.22;;;3.45;77.81
77702;BME280;66868;42.708;23.404;2024-01-25T00:18:13;95685.56;;;3.45;78.99
77702;BME280;66868;42.708;23.404;2024-01-25T00:20:38;95670.69;;;3.38;79.97
77702;BME280;66868;42.708;23.404;2024-01-25T00:23:04;95689.84;;;3.40;80.43
77702;BME280;66868;42.708;23.404;2024-01-25T00:25:29;95680.59;;;3.44;80.43
77702;BME280;66868;42.708;23.404;2024-01-25T00:27:55;95675.56;;;3.45;80.54
77702;BME280;66868;42.708;23.404;2024-01-25T00:30:20;95671.22;;;3.52;80.10
77702;BME280;66868;42.708;23.404;2024-01-25T00:32:46;95635.28;;;3.56;80.46
77702;BME280;66868;42.708;23.404;2024-01-25T00:35:12;95634.91;;;3.71;79.32
77702;BME280;66868;42.708;23.404;2024-01-25T00:37:40;95626.56;;;3.71;78.57
77702;BME280;66868;42.708;23.404;2024-01-25T00:40:06;95613.19;;;3.73;78.91
77702;BME280;66868;42.708;23.404;2024-01-25T00:42:36;95633.94;;;3.77;79.11
77702;BME280;66868;42.708;23.404;2024-01-25T00:45:06;95626.41;;;3.78;78.96
77702;BME280;66868;42.708;23.404;2024-01-25T00:47:32;95626.53;;;3.72;79.96
77702;BME280;66868;42.708;23.404;2024-01-25T00:49:57;95635.53;;;3.79;78.74
77702;BME280;66868;42.708;23.404;2024-01-25T00:52:23;95643.00;;;3.82;78.47
77702;BME280;66868;42.708;23.404;2024-01-25T00:54:49;95646.22;;;3.87;78.91
77702;BME280;66868;42.708;23.404;2024-01-25T00:57:15;95652.88;;;3.88;79.37
77702;BME280;66868;42.708;23.404;2024-01-25T00:59:40;95664.47;;;3.92;79.74
77702;BME280;66868;42.708;23.404;2024-01-25T01:02:09;95654.50;;;3.89;79.81
77702;BME280;66868;42.708;23.404;2024-01-25T01:04:36;95656.22;;;3.87;80.23
77702;BME280;66868;42.708;23.404;2024-01-25T01:07:02;95648.84;;;3.83;79.46
77702;BME280;66868;42.708;23.404;2024-01-25T01:09:29;95640.41;;;3.85;79.03
77702;BME280;66868;42.708;23.404;2024-01-25T01:11:54;95637.13;;;3.83;78.33
77702;BME280;66868;42.708;23.404;2024-01-25T01:14:20;95623.72;;;3.84;78.74
77702;BME280;66868;42.708;23.404;2024-01-25T01:16:45;95611.06;;;3.90;78.12
77702;BME280;66868;42.708;23.404;2024-01-25T01:19:11;95632.75;;;3.91;78.45
77702;BME280;66868;42.708;23.404;2024-01-25T01:21:36;95601.16;;;3.87;78.92
77702;BME280;66868;42.708;23.404;2024-01-25T01:24:02;95576.34;;;3.78;79.32
77702;BME280;66868;42.708;23.404;2024-01-25T01:26:28;95599.34;;;3.92;79.73
77702;BME280;66868;42.708;23.404;2024-01-25T01:28:53;95590.19;;;3.91;79.78
77702;BME280;66868;42.708;23.404;2024-01-25T01:31:19;95596.16;;;3.86;80.70
77702;BME280;66868;42.708;23.404;2024-01-25T01:33:44;95584.44;;;3.88;80.14
77702;BME280;66868;42.708;23.404;2024-01-25T01:36:10;95594.50;;;3.85;80.60
77702;BME280;66868;42.708;23.404;2024-01-25T01:38:35;95587.81;;;3.85;80.58
77702;BME280;66868;42.708;23.404;2024-01-25T01:41:01;95587.09;;;3.82;81.11
77702;BME280;66868;42.708;23.404;2024-01-25T01:43:26;95588.69;;;3.84;81.10
77702;BME280;66868;42.708;23.404;2024-01-25T01:45:54;95589.63;;;3.80;81.09
77702;BME280;66868;42.708;23.404;2024-01-25T01:48:25;95583.78;;;3.80;80.86
77702;BME280;66868;42.708;23.404;2024-01-25T01:50:50;95585.53;;;3.78;80.96
77702;BME280;66868;42.708;23.404;2024-01-25T01:53:17;95579.59;;;3.80;80.96
77702;BME280;66868;42.708;23.404;2024-01-25T01:55:42;95562.16;;;3.77;81.28
77702;BME280;66868;42.708;23.404;2024-01-25T01:58:09;95557.25;;;3.74;81.10
77702;BME280;66868;42.708;23.404;2024-01-25T02:00:36;95569.69;;;3.77;80.85
77702;BME280;66868;42.708;23.404;2024-01-25T02:03:03;95572.16;;;3.79;81.09
77702;BME280;66868;42.708;23.404;2024-01-25T02:05:28;95545.84;;;3.63;81.16
77702;BME280;66868;42.708;23.404;2024-01-25T02:07:54;95564.66;;;3.77;81.14
77702;BME280;66868;42.708;23.404;2024-01-25T02:10:19;95525.78;;;3.64;81.31
77702;BME280;66868;42.708;23.404;2024-01-25T02:12:45;95542.06;;;3.80;80.73
77702;BME280;66868;42.708;23.404;2024-01-25T02:15:10;95544.63;;;3.79;80.99
77702;BME280;66868;42.708;23.404;2024-01-25T02:17:36;95522.47;;;3.64;81.05
77702;BME280;66868;42.708;23.404;2024-01-25T02:20:02;95560.53;;;3.75;80.77
77702;BME280;66868;42.708;23.404;2024-01-25T02:22:28;95525.00;;;3.62;80.82
77702;BME280;66868;42.708;23.404;2024-01-25T02:24:54;95552.19;;;3.76;80.70
77702;BME280;66868;42.708;23.404;2024-01-25T02:27:19;95536.50;;;3.69;80.05
77702;BME280;66868;42.708;23.404;2024-01-25T02:29:45;95548.72;;;3.80;80.93
77702;BME280;66868;42.708;23.404;2024-01-25T02:32:10;95543.00;;;3.76;80.89
77702;BME280;66868;42.708;23.404;2024-01-25T02:34:36;95541.34;;;3.75;81.25
77702;BME280;66868;42.708;23.404;2024-01-25T02:37:01;95519.97;;;3.62;80.94
77702;BME280;66868;42.708;23.404;2024-01-25T02:39:27;95523.41;;;3.60;81.08
77702;BME280;66868;42.708;23.404;2024-01-25T02:41:53;95535.63;;;3.70;81.25
77702;BME280;66868;42.708;23.404;2024-01-25T02:44:18;95527.66;;;3.56;81.64
77702;BME280;66868;42.708;23.404;2024-01-25T02:46:44;95554.03;;;3.69;81.74
77702;BME280;66868;42.708;23.404;2024-01-25T02:49:10;95525.06;;;3.59;81.69
77702;BME280;66868;42.708;23.404;2024-01-25T02:51:36;95548.16;;;3.70;81.55
77702;BME280;66868;42.708;23.404;2024-01-25T02:54:01;95540.63;;;3.70;81.41
77702;BME280;66868;42.708;23.404;2024-01-25T02:56:27;95536.50;;;3.69;81.50
77702;BME280;66868;42.708;23.404;2024-01-25T02:58:59;95503.31;;;3.61;81.33
77702;BME280;66868;42.708;23.404;2024-01-25T03:01:24;95508.25;;;3.64;81.31
77702;BME280;66868;42.708;23.404;2024-01-25T03:03:50;95503.91;;;3.71;80.92
77702;BME280;66868;42.708;23.404;2024-01-25T03:06:15;95509.22;;;3.60;80.87
77702;BME280;66868;42.708;23.404;2024-01-25T03:08:41;95525.69;;;3.67;80.65
77702;BME280;66868;42.708;23.404;2024-01-25T03:11:06;95524.75;;;3.71;80.58
77702;BME280;66868;42.708;23.404;2024-01-25T03:13:32;95463.84;;;3.40;80.22
77702;BME280;66868;42.708;23.404;2024-01-25T03:15:59;95503.03;;;3.73;80.71
77702;BME280;66868;42.708;23.404;2024-01-25T03:18:25;95499.44;;;3.83;80.63
77702;BME280;66868;42.708;23.404;2024-01-25T03:20:50;95494.72;;;3.71;80.50
77702;BME280;66868;42.708;23.404;2024-01-25T03:23:16;95507.78;;;3.82;80.07
77702;BME280;66868;42.708;23.404;2024-01-25T03:25:42;95511.38;;;3.72;80.56
77702;BME280;66868;42.708;23.404;2024-01-25T03:28:07;95509.59;;;3.77;80.62
77702;BME280;66868;42.708;23.404;2024-01-25T03:30:34;95520.59;;;3.70;81.12
77702;BME280;66868;42.708;23.404;2024-01-25T03:33:00;95518.94;;;3.71;81.23
77702;BME280;66868;42.708;23.404;2024-01-25T03:35:25;95523.94;;;3.71;80.66
77702;BME280;66868;42.708;23.404;2024-01-25T03:37:51;95499.97;;;3.62;80.64
77702;BME280;66868;42.708;23.404;2024-01-25T03:40:17;95502.22;;;3.71;80.92
77702;BME280;66868;42.708;23.404;2024-01-25T03:42:42;95498.25;;;3.64;81.72
77702;BME280;66868;42.708;23.404;2024-01-25T03:45:08;95473.38;;;3.58;83.16
77702;BME280;66868;42.708;23.404;2024-01-25T03:47:33;95487.91;;;3.76;84.48
77702;BME280;66868;42.708;23.404;2024-01-25T03:49:59;95494.00;;;3.98;84.18
77702;BME280;66868;42.708;23.404;2024-01-25T03:52:25;95477.75;;;4.12;83.90
77702;BME280;66868;42.708;23.404;2024-01-25T03:54:51;95493.41;;;4.49;83.12
77702;BME280;66868;42.708;23.404;2024-01-25T03:57:16;95498.66;;;4.69;82.04
77702;BME280;66868;42.708;23.404;2024-01-25T03:59:42;95501.75;;;4.77;81.85
77702;BME280;66868;42.708;23.404;2024-01-25T04:02:07;95503.84;;;4.91;80.79
77702;BME280;66868;42.708;23.404;2024-01-25T04:04:33;95484.44;;;4.98;80.54
77702;BME280;66868;42.708;23.404;2024-01-25T04:06:59;95465.72;;;5.08;80.17
77702;BME280;66868;42.708;23.404;2024-01-25T04:09:24;95462.84;;;5.18;79.33
77702;BME280;66868;42.708;23.404;2024-01-25T04:11:50;95461.94;;;5.21;79.03
77702;BME280;66868;42.708;23.404;2024-01-25T04:14:15;95449.63;;;5.13;78.56
77702;BME280;66868;42.708;23.404;2024-01-25T04:16:41;95441.38;;;5.10;79.12
77702;BME280;66868;42.708;23.404;2024-01-25T04:19:06;95444.88;;;5.06;79.10
77702;BME280;66868;42.708;23.404;2024-01-25T04:21:32;95462.25;;;5.12;78.91
77702;BME280;66868;42.708;23.404;2024-01-25T04:23:58;95442.91;;;4.89;79.54
77702;BME280;66868;42.708;23.404;2024-01-25T04:26:23;95466.88;;;4.98;79.04
77702;BME280;66868;42.708;23.404;2024-01-25T04:28:49;95470.19;;;4.98;79.78
77702;BME280;66868;42.708;23.404;2024-01-25T04:31:14;95470.50;;;4.89;79.61
77702;BME280;66868;42.708;23.404;2024-01-25T04:33:40;95467.19;;;4.87;79.37
77702;BME280;66868;42.708;23.404;2024-01-25T04:36:06;95448.91;;;4.83;79.84
77702;BME280;66868;42.708;23.404;2024-01-25T04:38:31;95464.06;;;4.80;80.31
77702;BME280;66868;42.708;23.404;2024-01-25T04:40:57;95465.75;;;4.80;79.88
77702;BME280;66868;42.708;23.404;2024-01-25T04:43:22;95471.59;;;4.80;79.60
77702;BME280;66868;42.708;23.404;2024-01-25T04:45:48;95484.88;;;4.82;79.77
77702;BME280;66868;42.708;23.404;2024-01-25T04:48:13;95484.94;;;4.81;79.01
77702;BME280;66868;42.708;23.404;2024-01-25T04:50:39;95484.28;;;4.76;79.94
77702;BME280;66868;42.708;23.404;2024-01-25T04:53:05;95473.16;;;4.57;79.75
77702;BME280;66868;42.708;23.404;2024-01-25T04:55:30;95508.53;;;4.75;79.51
77702;BME280;66868;42.708;23.404;2024-01-25T04:57:56;95506.59;;;4.83;79.42
77702;BME280;66868;42.708;23.404;2024-01-25T05:00:22;95488.19;;;4.84;78.50
77702;BME280;66868;42.708;23.404;2024-01-25T05:02:48;95489.72;;;4.88;78.49
77702;BME280;66868;42.708;23.404;2024-01-25T05:05:14;95510.66;;;5.14;77.35
77702;BME280;66868;42.708;23.404;2024-01-25T05:07:39;95502.97;;;5.20;77.40
77702;BME280;66868;42.708;23.404;2024-01-25T05:10:05;95502.97;;;5.20;77.02
77702;BME280;66868;42.708;23.404;2024-01-25T05:12:31;95506.88;;;5.28;77.58
77702;BME280;66868;42.708;23.404;2024-01-25T05:14:57;95514.94;;;5.38;76.91
77702;BME280;66868;42.708;23.404;2024-01-25T05:17:23;95538.09;;;5.46;75.35
77702;BME280;66868;42.708;23.404;2024-01-25T05:19:48;95514.63;;;5.47;75.24
77702;BME280;66868;42.708;23.404;2024-01-25T05:22:14;95534.22;;;5.62;75.17
77702;BME280;66868;42.708;23.404;2024-01-25T05:24:39;95543.78;;;5.77;73.91
77702;BME280;66868;42.708;23.404;2024-01-25T05:27:05;95551.56;;;5.70;73.56
77702;BME280;66868;42.708;23.404;2024-01-25T05:29:30;95550.44;;;5.78;72.84
77702;BME280;66868;42.708;23.404;2024-01-25T05:31:55;95506.75;;;5.58;72.34
77702;BME280;66868;42.708;23.404;2024-01-25T05:34:21;95558.75;;;5.81;72.37
77702;BME280;66868;42.708;23.404;2024-01-25T05:36:47;95550.44;;;5.78;73.66
77702;BME280;66868;42.708;23.404;2024-01-25T05:39:13;95562.97;;;5.78;73.54
77702;BME280;66868;42.708;23.404;2024-01-25T05:41:38;95563.94;;;5.74;73.49
77702;BME280;66868;42.708;23.404;2024-01-25T05:44:04;95556.84;;;5.62;73.98
77702;BME280;66868;42.708;23.404;2024-01-25T05:46:30;95556.72;;;5.65;73.64
77702;BME280;66868;42.708;23.404;2024-01-25T05:48:55;95600.94;;;5.69;73.33
77702;BME280;66868;42.708;23.404;2024-01-25T05:51:21;95566.00;;;5.63;74.23
77702;BME280;66868;42.708;23.404;2024-01-25T05:53:46;95579.13;;;5.71;74.45
77702;BME280;66868;42.708;23.404;2024-01-25T05:56:11;95588.41;;;5.69;74.24
77702;BME280;66868;42.708;23.404;2024-01-25T05:58:37;95535.53;;;5.48;74.54
77702;BME280;66868;42.708;23.404;2024-01-25T06:01:02;95583.03;;;5.80;75.14
77702;BME280;66868;42.708;23.404;2024-01-25T06:03:28;95596.25;;;5.87;76.13
77702;BME280;66868;42.708;23.404;2024-01-25T06:05:53;95592.00;;;5.89;75.49
77702;BME280;66868;42.708;23.404;2024-01-25T06:08:19;95591.91;;;5.92;75.12
77702;BME280;66868;42.708;23.404;2024-01-25T06:10:44;95595.19;;;5.94;75.28
77702;BME280;66868;42.708;23.404;2024-01-25T06:13:10;95596.00;;;5.94;75.43
77702;BME280;66868;42.708;23.404;2024-01-25T06:15:35;95591.66;;;5.99;77.10
77702;BME280;66868;42.708;23.404;2024-01-25T06:18:01;95592.06;;;6.12;76.88
77702;BME280;66868;42.708;23.404;2024-01-25T06:20:26;95595.13;;;6.20;76.23
77702;BME280;66868;42.708;23.404;2024-01-25T06:22:52;95579.28;;;6.18;74.99
77702;BME280;66868;42.708;23.404;2024-01-25T06:25:17;95591.34;;;6.33;73.96
77702;BME280;66868;42.708;23.404;2024-01-25T06:27:43;95575.25;;;6.14;73.31
77702;BME280;66868;42.708;23.404;2024-01-25T06:30:09;95593.03;;;6.08;73.63
77702;BME280;66868;42.708;23.404;2024-01-25T06:32:35;95592.25;;;6.06;73.48
77702;BME280;66868;42.708;23.404;2024-01-25T06:35:00;95605.72;;;6.05;73.29
77702;BME280;66868;42.708;23.404;2024-01-25T06:37:25;95607.31;;;6.06;73.21
77702;BME280;66868;42.708;23.404;2024-01-25T06:39:51;95600.72;;;6.03;73.32
77702;BME280;66868;42.708;23.404;2024-01-25T06:42:16;95598.22;;;6.03;74.10
77702;BME280;66868;42.708;23.404;2024-01-25T06:44:42;95533.22;;;5.68;73.97
77702;BME280;66868;42.708;23.404;2024-01-25T06:47:08;95578.31;;;5.97;73.90
77702;BME280;66868;42.708;23.404;2024-01-25T06:49:34;95568.91;;;6.02;73.82
77702;BME280;66868;42.708;23.404;2024-01-25T06:51:59;95573.91;;;6.04;74.15
77702;BME280;66868;42.708;23.404;2024-01-25T06:54:24;95558.03;;;6.02;74.48
77702;BME280;66868;42.708;23.404;2024-01-25T06:56:50;95564.00;;;5.99;74.26
77702;BME280;66868;42.708;23.404;2024-01-25T06:59:16;95559.88;;;5.97;74.42
77702;BME280;66868;42.708;23.404;2024-01-25T07:01:42;95567.25;;;6.03;73.44
77702;BME280;66868;42.708;23.404;2024-01-25T07:04:07;95573.88;;;6.05;73.71
77702;BME280;66868;42.708;23.404;2024-01-25T07:06:33;95572.72;;;6.14;72.72
77702;BME280;66868;42.708;23.404;2024-01-25T07:08:58;95561.91;;;6.12;72.74
77702;BME280;66868;42.708;23.404;2024-01-25T07:11:24;95545.84;;;6.16;72.42
77702;BME280;66868;42.708;23.404;2024-01-25T07:13:50;95570.56;;;6.28;72.02
77702;BME280;66868;42.708;23.404;2024-01-25T07:16:16;95572.09;;;6.32;71.80
77702;BME280;66868;42.708;23.404;2024-01-25T07:18:41;95580.31;;;6.37;71.21
77702;BME280;66868;42.708;23.404;2024-01-25T07:21:06;95580.31;;;6.37;71.34
77702;BME280;66868;42.708;23.404;2024-01-25T07:23:33;95563.38;;;6.42;70.96
77702;BME280;66868;42.708;23.404;2024-01-25T07:25:59;95552.56;;;6.39;70.65
77702;BME280;66868;42.708;23.404;2024-01-25T07:28:24;95571.34;;;6.53;70.51
77702;BME280;66868;42.708;23.404;2024-01-25T07:30:50;95578.88;;;6.53;70.91
77702;BME280;66868;42.708;23.404;2024-01-25T07:33:16;95579.75;;;6.52;70.43
77702;BME280;66868;42.708;23.404;2024-01-25T07:35:42;95584.94;;;6.48;70.56
77702;BME280;66868;42.708;23.404;2024-01-25T07:38:14;95576.59;;;6.47;70.35
77702;BME280;66868;42.708;23.404;2024-01-25T07:40:40;95576.47;;;6.50;70.17
77702;BME280;66868;42.708;23.404;2024-01-25T07:43:05;95587.75;;;6.63;70.22
77702;BME280;66868;42.708;23.404;2024-01-25T07:45:31;95586.22;;;6.59;70.58
77702;BME280;66868;42.708;23.404;2024-01-25T07:47:57;95594.31;;;6.68;70.47
77702;BME280;66868;42.708;23.404;2024-01-25T07:50:22;95580.38;;;6.59;70.54
77702;BME280;66868;42.708;23.404;2024-01-25T07:52:48;95585.34;;;6.60;70.08
77702;BME280;66868;42.708;23.404;2024-01-25T07:55:15;95611.22;;;6.64;70.41
77702;BME280;66868;42.708;23.404;2024-01-25T07:57:41;95613.56;;;6.69;69.75
77702;BME280;66868;42.708;23.404;2024-01-25T08:00:07;95596.78;;;6.69;69.79
77702;BME280;66868;42.708;23.404;2024-01-25T08:02:36;95608.88;;;6.83;70.09
77702;BME280;66868;42.708;23.404;2024-01-25T08:05:05;95601.97;;;6.88;69.83
77702;BME280;66868;42.708;23.404;2024-01-25T08:07:31;95614.44;;;6.91;69.73
77702;BME280;66868;42.708;23.404;2024-01-25T08:09:56;95623.16;;;7.04;68.92
77702;BME280;66868;42.708;23.404;2024-01-25T08:12:24;95610.31;;;7.12;71.25
77702;BME280;66868;42.708;23.404;2024-01-25T08:14:50;95621.31;;;7.31;69.95
77702;BME280;66868;42.708;23.404;2024-01-25T08:17:15;95609.81;;;7.47;69.25
77702;BME280;66868;42.708;23.404;2024-01-25T08:19:41;95615.13;;;7.61;68.86
77702;BME280;66868;42.708;23.404;2024-01-25T08:22:06;95626.84;;;7.62;66.34
77702;BME280;66868;42.708;23.404;2024-01-25T08:24:32;95626.47;;;7.49;66.72
77702;BME280;66868;42.708;23.404;2024-01-25T08:26:57;95625.09;;;7.42;66.36
77702;BME280;66868;42.708;23.404;2024-01-25T08:29:23;95625.97;;;7.41;66.69
77702;BME280;66868;42.708;23.404;2024-01-25T08:31:48;95630.25;;;7.39;67.00
77702;BME280;66868;42.708;23.404;2024-01-25T08:34:13;95599.66;;;7.27;67.15
77702;BME280;66868;42.708;23.404;2024-01-25T08:36:39;95613.41;;;7.40;66.01
77702;BME280;66868;42.708;23.404;2024-01-25T08:39:05;95592.28;;;7.22;65.76
77702;BME280;66868;42.708;23.404;2024-01-25T08:41:31;95622.88;;;7.35;65.56
77702;BME280;66868;42.708;23.404;2024-01-25T08:43:56;95639.44;;;7.40;65.06
77702;BME280;66868;42.708;23.404;2024-01-25T08:46:21;95627.34;;;7.27;65.37
77702;BME280;66868;42.708;23.404;2024-01-25T08:48:47;95632.22;;;7.31;66.01
77702;BME280;66868;42.708;23.404;2024-01-25T08:51:12;95619.44;;;7.36;65.77
77702;BME280;66868;42.708;23.404;2024-01-25T08:53:38;95634.00;;;7.51;65.12
77702;BME280;66868;42.708;23.404;2024-01-25T08:56:04;95626.38;;;7.52;65.00
77702;BME280;66868;42.708;23.404;2024-01-25T08:58:30;95631.75;;;7.65;64.02
77702;BME280;66868;42.708;23.404;2024-01-25T09:00:55;95606.22;;;7.52;63.75
77702;BME280;66868;42.708;23.404;2024-01-25T09:03:21;95640.88;;;7.68;63.11
77702;BME280;66868;42.708;23.404;2024-01-25T09:05:47;95634.09;;;7.70;63.78
77702;BME280;66868;42.708;23.404;2024-01-25T09:08:14;95619.13;;;7.67;63.80
77702;BME280;66868;42.708;23.404;2024-01-25T09:10:40;95625.69;;;7.71;63.50
77702;BME280;66868;42.708;23.404;2024-01-25T09:13:06;95613.47;;;7.60;64.05
77702;BME280;66868;42.708;23.404;2024-01-25T09:15:32;95627.31;;;7.72;63.86
77702;BME280;66868;42.708;23.404;2024-01-25T09:17:57;95608.13;;;7.68;63.70
77702;BME280;66868;42.708;23.404;2024-01-25T09:20:23;95604.75;;;7.69;64.19
77702;BME280;66868;42.708;23.404;2024-01-25T09:22:48;95620.41;;;7.77;64.50
77702;BME280;66868;42.708;23.404;2024-01-25T09:25:14;95612.72;;;7.80;63.54
77702;BME280;66868;42.708;23.404;2024-01-25T09:27:39;95605.47;;;7.92;64.01
77702;BME280;66868;42.708;23.404;2024-01-25T09:30:05;95607.50;;;7.84;63.99
77702;BME280;66868;42.708;23.404;2024-01-25T09:32:31;95594.28;;;7.78;64.77
77702;BME280;66868;42.708;23.404;2024-01-25T09:34:56;95607.16;;;7.72;64.07
77702;BME280;66868;42.708;23.404;2024-01-25T09:37:22;95592.22;;;7.67;64.90
77702;BME280;66868;42.708;23.404;2024-01-25T09:39:50;95606.63;;;7.64;64.96
77702;BME280;66868;42.708;23.404;2024-01-25T09:42:17;95593.03;;;7.68;65.08
77702;BME280;66868;42.708;23.404;2024-01-25T09:44:43;95593.59;;;7.74;64.77
77702;BME280;66868;42.708;23.404;2024-01-25T09:47:08;95581.00;;;7.74;64.57
77702;BME280;66868;42.708;23.404;2024-01-25T09:49:34;95612.59;;;7.83;64.51
77702;BME280;66868;42.708;23.404;2024-01-25T09:52:01;95528.44;;;7.45;64.56
77702;BME280;66868;42.708;23.404;2024-01-25T09:54:32;95542.38;;;7.53;64.62
77702;BME280;66868;42.708;23.404;2024-01-25T09:56:59;95575.84;;;7.77;64.58
77702;BME280;66868;42.708;23.404;2024-01-25T09:59:27;95571.06;;;7.71;64.50
77702;BME280;66868;42.708;23.404;2024-01-25T10:01:53;95565.84;;;7.76;65.47
77702;BME280;66868;42.708;23.404;2024-01-25T10:04:18;95559.28;;;7.72;65.51
77702;BME280;66868;42.708;23.404;2024-01-25T10:06:47;95515.41;;;7.55;65.08
77702;BME280;66868;42.708;23.404;2024-01-25T10:09:13;95555.69;;;7.77;65.27
77702;BME280;66868;42.708;23.404;2024-01-25T10:11:39;95545.72;;;7.74;65.46
77702;BME280;66868;42.708;23.404;2024-01-25T10:14:05;95538.13;;;7.76;66.05
77702;BME280;66868;42.708;23.404;2024-01-25T10:16:31;95528.59;;;7.82;65.17
77702;BME280;66868;42.708;23.404;2024-01-25T10:18:57;95525.38;;;7.79;64.72
77702;BME280;66868;42.708;23.404;2024-01-25T10:21:23;95536.34;;;7.78;65.42
77702;BME280;66868;42.708;23.404;2024-01-25T10:23:48;95521.09;;;7.81;65.19
77702;BME280;66868;42.708;23.404;2024-01-25T10:26:16;95504.09;;;7.86;65.15
77702;BME280;66868;42.708;23.404;2024-01-25T10:28:42;95520.06;;;8.05;65.15
77702;BME280;66868;42.708;23.404;2024-01-25T10:31:08;95519.69;;;8.14;63.96
77702;BME280;66868;42.708;23.404;2024-01-25T10:33:34;95506.38;;;8.11;63.92
77702;BME280;66868;42.708;23.404;2024-01-25T10:36:01;95504.50;;;8.16;63.57
77702;BME280;66868;42.708;23.404;2024-01-25T10:38:31;95506.56;;;8.26;63.89
77702;BME280;66868;42.708;23.404;2024-01-25T10:40:59;95515.94;;;8.43;64.10
77702;BME280;66868;42.708;23.404;2024-01-25T10:43:26;95502.19;;;8.50;63.49
77702;BME280;66868;42.708;23.404;2024-01-25T10:45:52;95496.22;;;8.32;63.05
77702;BME280;66868;42.708;23.404;2024-01-25T10:48:21;95527.09;;;8.37;63.54
77702;BME280;66868;42.708;23.404;2024-01-25T10:50:47;95515.66;;;8.30;63.58
77702;BME280;66868;42.708;23.404;2024-01-25T10:53:15;95505.78;;;8.24;64.04
77702;BME280;66868;42.708;23.404;2024-01-25T10:55:42;95498.44;;;8.20;64.06
77702;BME280;66868;42.708;23.404;2024-01-25T10:58:07;95476.03;;;8.14;64.25
77702;BME280;66868;42.708;23.404;2024-01-25T11:00:35;95498.00;;;8.30;64.04
77702;BME280;66868;42.708;23.404;2024-01-25T11:03:01;95502.66;;;8.39;63.65
77702;BME280;66868;42.708;23.404;2024-01-25T11:05:27;95509.47;;;8.56;64.21
77702;BME280;66868;42.708;23.404;2024-01-25T11:07:53;95494.72;;;8.66;64.36
77702;BME280;66868;42.708;23.404;2024-01-25T11:10:21;95459.41;;;8.66;63.88
77702;BME280;66868;42.708;23.404;2024-01-25T11:12:57;95486.75;;;8.75;62.59
77702;BME280;66868;42.708;23.404;2024-01-25T11:17:56;95470.75;;;8.57;62.10
77702;BME280;66868;42.708;23.404;2024-01-25T11:20:26;95453.69;;;8.43;63.33
77702;BME280;66868;42.708;23.404;2024-01-25T11:23:02;95443.00;;;8.38;62.99
77702;BME280;66868;42.708;23.404;2024-01-25T11:25:29;95413.75;;;8.34;62.74
77702;BME280;66868;42.708;23.404;2024-01-25T11:27:55;95434.59;;;8.38;62.14
77702;BME280;66868;42.708;23.404;2024-01-25T11:30:21;95464.06;;;8.37;62.05
77702;BME280;66868;42.708;23.404;2024-01-25T11:32:47;95470.25;;;8.30;62.36
77702;BME280;66868;42.708;23.404;2024-01-25T11:35:14;95448.81;;;8.20;62.52
77702;BME280;66868;42.708;23.404;2024-01-25T11:37:49;95443.78;;;8.20;63.47
77702;BME280;66868;42.708;23.404;2024-01-25T11:40:17;95414.28;;;8.04;62.53
77702;BME280;66868;42.708;23.404;2024-01-25T11:42:44;95460.81;;;8.15;62.24
77702;BME280;66868;42.708;23.404;2024-01-25T11:45:10;95481.25;;;8.09;62.13
77702;BME280;66868;42.708;23.404;2024-01-25T11:47:37;95469.41;;;8.11;62.13
77702;BME280;66868;42.708;23.404;2024-01-25T11:50:05;95466.25;;;8.06;62.39
77702;BME280;66868;42.708;23.404;2024-01-25T11:52:30;95436.66;;;7.91;61.46
77702;BME280;66868;42.708;23.404;2024-01-25T11:54:59;95425.34;;;7.81;61.22
77702;BME280;66868;42.708;23.404;2024-01-25T11:57:25;95471.84;;;8.13;61.42
77702;BME280;66868;42.708;23.404;2024-01-25T11:59:51;95446.16;;;8.23;61.60
77702;BME280;66868;42.708;23.404;2024-01-25T12:02:17;95449.22;;;8.31;60.67
77702;BME280;66868;42.708;23.404;2024-01-25T12:04:42;95446.16;;;8.23;61.02
77702;BME280;66868;42.708;23.404;2024-01-25T12:07:08;95465.59;;;8.21;60.80
77702;BME280;66868;42.708;23.404;2024-01-25T12:09:34;95451.28;;;8.22;60.07
77702;BME280;66868;42.708;23.404;2024-01-25T12:12:02;95445.28;;;8.24;61.43
77702;BME280;66868;42.708;23.404;2024-01-25T12:14:30;95446.25;;;8.22;60.45
77702;BME280;66868;42.708;23.404;2024-01-25T12:16:56;95444.94;;;8.13;60.42
77702;BME280;66868;42.708;23.404;2024-01-25T12:19:21;95424.00;;;8.11;61.17
77702;BME280;66868;42.708;23.404;2024-01-25T12:21:47;95416.91;;;8.19;61.37
77702;BME280;66868;42.708;23.404;2024-01-25T12:24:13;95440.41;;;8.40;60.77
77702;BME280;66868;42.708;23.404;2024-01-25T12:26:38;95432.22;;;8.54;60.75
77702;BME280;66868;42.708;23.404;2024-01-25T12:29:04;95424.84;;;8.68;60.34
77702;BME280;66868;42.708;23.404;2024-01-25T12:31:30;95392.75;;;8.70;59.77
77702;BME280;66868;42.708;23.404;2024-01-25T12:33:56;95401.75;;;8.75;59.05
77702;BME280;66868;42.708;23.404;2024-01-25T12:36:23;95384.84;;;8.77;59.55
77702;BME280;66868;42.708;23.404;2024-01-25T12:38:48;95393.03;;;8.82;59.04
77702;BME280;66868;42.708;23.404;2024-01-25T12:41:14;95397.19;;;9.01;58.61
77702;BME280;66868;42.708;23.404;2024-01-25T12:43:40;95377.41;;;9.26;58.49
77702;BME280;66868;42.708;23.404;2024-01-25T12:46:06;95384.75;;;9.65;57.35
77702;BME280;66868;42.708;23.404;2024-01-25T12:48:31;95392.97;;;10.01;56.56
77702;BME280;66868;42.708;23.404;2024-01-25T12:50:57;95381.84;;;10.37;55.28
77702;BME280;66868;42.708;23.404;2024-01-25T12:53:23;95398.75;;;10.52;53.80
77702;BME280;66868;42.708;23.404;2024-01-25T12:55:48;95382.56;;;10.70;53.87